< < Back
Terminal Aerodrome Forecast


Current Version              Previous Versions:   1  2  3  4  5  6  7  8  9  

Terminal Aerodrome Forecast

928
FTUS44 KMOB 261518 AAB
TAFMOB
TAF AMD
KMOB 261518Z 2615/2712 12005KT P6SM VCSH FEW050 SCT090 OVC200
     FM261700 20010KT 6SM SHRA BKN020 OVC050
      TEMPO 2618/2622 VRB15G25KT 3SM -TSRA BKN015CB
     FM262200 19006KT 3SM -TSRA OVC015CB
     FM270500 34011KT 5SM BR OVC007=

Latest METAR

466
SAUS80 KWBC 270300 CCA
MTRMOB
METAR KMOB 270256Z 25004KT 10SM SCT032 OVC045 18/17 A2987 RMK AO2 SLP111
T01780172 53002


USA.gov is the U.S. government's official web portal to all federal, state and local government web resources and services.